Time;durP1;ratioP1;P1;durP2;ratioP2;P2;SDS_P1;SDS_P2;PMS_P1;PMS_P2;Temp;Humidity;BMP_temperature;BMP_pressure;BME280_temperature;BME280_humidity;BME280_pressure;Samples;Min_cycle;Max_cycle;Signal;HPM_P1;HPM_P2
2021/05/13 00:02:26;;;;;;;10.68;5.90;;;;;;;14.33;55.10;100915.25;4971339;28;114436;-66
2021/05/13 00:04:53;;;;;;;15.90;6.68;;;;;;;14.31;55.20;100906.50;4970284;28;113803;-66
2021/05/13 00:07:20;;;;;;;13.82;6.95;;;;;;;14.28;55.27;100912.00;4969232;28;125088;-66
2021/05/13 00:09:49;;;;;;;10.32;6.28;;;;;;;14.27;55.35;100915.63;4981803;28;123138;-66
2021/05/13 00:15:20;;;;;;;13.15;7.20;;;;;;;14.23;55.71;100908.78;4936500;28;115526;-66
2021/05/13 00:17:49;;;;;;;13.63;6.85;;;;;;;14.21;55.58;100917.69;4967865;28;124438;-68
2021/05/13 00:20:22;;;;;;;12.00;6.70;;;;;;;14.20;55.77;100916.00;4970942;28;123574;-66
2021/05/13 00:22:50;;;;;;;11.68;6.93;;;;;;;14.19;55.62;100919.59;4967196;28;115593;-66
2021/05/13 00:25:17;;;;;;;15.52;7.40;;;;;;;14.18;55.70;100915.22;4969056;28;113727;-66
2021/05/13 00:27:45;;;;;;;12.57;6.75;;;;;;;14.18;55.84;100912.56;4966908;28;124362;-66
2021/05/13 00:30:13;;;;;;;13.80;7.03;;;;;;;14.16;55.64;100906.44;4969270;28;122879;-66
2021/05/13 00:32:40;;;;;;;15.55;7.18;;;;;;;14.15;55.89;100906.56;4969358;28;113358;-66
2021/05/13 00:35:10;;;;;;;14.75;7.35;;;;;;;14.12;55.90;100902.25;4971223;28;114182;-66
2021/05/13 00:37:37;;;;;;;11.07;6.65;;;;;;;14.09;55.79;100890.91;4968701;28;123614;-68
2021/05/13 00:40:06;;;;;;;12.95;7.60;;;;;;;14.05;55.88;100895.56;4971430;28;122968;-66
2021/05/13 00:42:33;;;;;;;11.30;6.82;;;;;;;14.02;55.92;100890.44;4970789;28;114262;-66
2021/05/13 00:45:01;;;;;;;12.23;7.57;;;;;;;13.99;55.96;100890.59;4970362;28;114064;-68
2021/05/13 00:47:28;;;;;;;11.30;6.95;;;;;;;13.96;55.72;100888.16;4969711;28;125405;-66
2021/05/13 00:49:56;;;;;;;10.77;6.63;;;;;;;13.94;55.94;100882.06;4970746;28;123895;-66
2021/05/13 00:52:24;;;;;;;11.40;7.32;;;;;;;13.92;55.93;100894.56;4970975;28;114050;-68
2021/05/13 00:54:51;;;;;;;14.00;6.93;;;;;;;13.90;55.78;100891.16;4969399;28;114145;-66
2021/05/13 00:57:18;;;;;;;11.48;7.20;;;;;;;13.89;56.01;100889.44;4970376;28;124477;-66
2021/05/13 00:59:49;;;;;;;9.68;6.45;;;;;;;13.89;55.74;100889.44;4967759;28;124261;-66
2021/05/13 01:02:16;;;;;;;12.23;7.13;;;;;;;13.88;55.80;100893.03;4970861;28;114348;-65
2021/05/13 01:04:43;;;;;;;11.27;6.53;;;;;;;13.87;55.67;100891.34;4966624;28;113275;-67
2021/05/13 01:07:10;;;;;;;11.80;7.30;;;;;;;13.85;55.68;100887.91;4969488;28;123218;-66
2021/05/13 01:09:38;;;;;;;9.27;6.60;;;;;;;13.80;55.45;100886.34;4964369;28;123378;-66
2021/05/13 01:12:16;;;;;;;11.80;6.75;;;;;;;13.78;55.71;100888.25;4970649;28;114291;-66
2021/05/13 01:14:45;;;;;;;13.02;6.68;;;;;;;13.76;55.45;100890.16;4968317;28;114976;-66
2021/05/13 01:19:45;;;;;;;12.88;7.28;;;;;;;13.66;55.59;100888.97;4970914;28;124009;-66
2021/05/13 01:22:16;;;;;;;10.98;7.18;;;;;;;13.64;55.71;100885.53;4971961;28;113900;-66
2021/05/13 01:24:44;;;;;;;12.10;7.47;;;;;;;13.59;55.72;100892.91;4970437;28;113854;-66
2021/05/13 01:27:11;;;;;;;10.73;6.80;;;;;;;13.57;55.92;100889.50;4969335;28;124509;-66
2021/05/13 01:29:46;;;;;;;13.60;7.45;;;;;;;13.55;55.75;100891.38;4970645;28;124068;-66
2021/05/13 01:32:15;;;;;;;13.90;7.95;;;;;;;13.52;55.87;100886.22;4966674;28;114269;-66
2021/05/13 01:34:42;;;;;;;11.00;7.50;;;;;;;13.50;55.79;100888.13;4965959;28;113043;-66
2021/05/13 01:37:10;;;;;;;14.02;8.63;;;;;;;13.48;55.95;100884.69;4969259;28;124516;-66
2021/05/13 01:39:37;;;;;;;14.32;7.97;;;;;;;13.46;55.98;100883.91;4966305;28;123808;-66
2021/05/13 01:42:04;;;;;;;13.57;9.27;;;;;;;13.42;55.88;100886.75;4967128;28;113330;-66
2021/05/13 01:44:31;;;;;;;16.90;10.00;;;;;;;13.41;56.01;100885.03;4970277;28;114088;-66
2021/05/13 01:46:58;;;;;;;14.07;10.20;;;;;;;13.39;56.07;100881.63;4964511;28;124769;-66
2021/05/13 01:49:28;;;;;;;16.02;9.90;;;;;;;13.38;56.19;100879.88;4962993;28;123585;-66
2021/05/13 01:51:55;;;;;;;17.13;10.63;;;;;;;13.37;56.23;100883.50;4968364;28;114507;-66
2021/05/13 01:54:22;;;;;;;17.77;10.73;;;;;;;13.36;55.87;100880.94;4968264;28;113234;-66
2021/05/13 01:56:49;;;;;;;13.75;9.70;;;;;;;13.33;56.07;100879.28;4968266;28;124132;-66
2021/05/13 01:59:17;;;;;;;10.20;7.72;;;;;;;13.32;55.94;100874.91;4965358;28;124228;-68
2021/05/13 02:01:44;;;;;;;12.05;8.45;;;;;;;13.30;55.83;100875.88;4969482;28;115086;-66
2021/05/13 02:04:11;;;;;;;11.52;8.50;;;;;;;13.27;56.09;100876.94;4969679;28;114707;-66
2021/05/13 02:06:38;;;;;;;14.55;8.60;;;;;;;13.25;56.03;100878.81;4964310;28;123305;-66
2021/05/13 02:09:05;;;;;;;12.60;7.90;;;;;;;13.23;56.08;100870.94;4969044;28;127038;-66
2021/05/13 02:11:33;;;;;;;10.90;8.50;;;;;;;13.21;55.89;100864.00;4968167;28;114665;-66
2021/05/13 02:14:00;;;;;;;15.00;9.13;;;;;;;13.19;55.97;100868.53;4967969;28;113560;-66
2021/05/13 02:16:27;;;;;;;18.00;9.65;;;;;;;13.17;55.96;100859.78;4967307;28;123379;-66
2021/05/13 02:18:54;;;;;;;14.90;9.98;;;;;;;13.15;56.00;100869.66;4969933;28;123851;-66
2021/05/13 02:21:21;;;;;;;15.82;10.10;;;;;;;13.13;56.32;100858.22;4967881;28;113879;-66
2021/05/13 02:23:49;;;;;;;13.60;10.38;;;;;;;13.10;56.37;100863.72;4969579;28;113772;-66
2021/05/13 02:26:19;;;;;;;12.75;8.75;;;;;;;13.08;56.14;100870.94;4969172;28;124014;-66
2021/05/13 02:28:47;;;;;;;9.63;7.90;;;;;;;13.05;56.13;100867.50;4960147;28;123728;-66
2021/05/13 02:31:15;;;;;;;9.15;8.20;;;;;;;13.02;56.49;100859.69;4970116;28;115006;-66
2021/05/13 02:33:42;;;;;;;8.98;8.07;;;;;;;13.00;56.19;100852.75;4967103;28;113323;-66
2021/05/13 02:36:10;;;;;;;9.32;7.72;;;;;;;12.97;56.39;100852.91;4965702;28;124461;-66
2021/05/13 02:38:37;;;;;;;12.30;8.77;;;;;;;12.95;56.09;100855.63;4969187;28;124581;-66
2021/05/13 02:41:04;;;;;;;12.85;10.18;;;;;;;12.93;56.42;100852.22;4969142;28;114812;-66
2021/05/13 02:43:31;;;;;;;11.88;9.38;;;;;;;12.90;56.42;100844.38;4969894;28;114366;-66
2021/05/13 02:45:58;;;;;;;12.18;9.07;;;;;;;12.88;56.42;100843.63;4969256;28;125149;-66
2021/05/13 02:48:25;;;;;;;14.13;9.60;;;;;;;12.84;56.49;100837.59;4983971;28;124711;-66
2021/05/13 02:50:52;;;;;;;13.57;10.00;;;;;;;12.83;56.41;100829.75;4966523;28;114380;-66
2021/05/13 02:53:19;;;;;;;13.23;9.43;;;;;;;12.81;56.58;100831.63;4969636;28;115448;-66
2021/05/13 02:55:47;;;;;;;13.82;9.90;;;;;;;12.77;56.62;100827.41;4967922;28;126073;-66
2021/05/13 02:58:14;;;;;;;11.05;8.88;;;;;;;12.77;56.44;100835.38;4966311;28;124569;-67
2021/05/13 03:01:05;;;;;;;8.85;7.93;;;;;;;12.73;56.42;100821.38;4967683;28;114300;-66
2021/05/13 03:03:33;;;;;;;10.32;7.88;;;;;;;12.70;56.39;100826.88;4968090;28;114388;-66
2021/05/13 03:06:00;;;;;;;8.88;6.78;;;;;;;12.65;56.63;100816.50;4969138;28;124075;-66
2021/05/13 03:08:27;;;;;;;7.85;5.80;;;;;;;12.62;56.29;100822.00;4967691;28;124153;-66
2021/05/13 03:10:54;;;;;;;5.57;5.00;;;;;;;12.58;56.20;100808.94;4968156;28;115164;-66
2021/05/13 03:13:25;;;;;;;8.57;5.25;;;;;;;12.53;56.22;100811.84;4969239;28;114288;-66
2021/05/13 03:15:52;;;;;;;7.05;5.22;;;;;;;12.50;56.16;100806.69;4966571;28;123833;-66
2021/05/13 03:18:23;;;;;;;51.90;6.18;;;;;;;12.44;56.37;100812.34;4968774;28;124245;-66
2021/05/13 03:21:36;;;;;;;84.72;6.18;;;;;;;12.38;56.55;100810.03;4951355;28;113450;-66
2021/05/13 03:23:54;;;;;;;7.53;5.22;;;;;;;12.31;56.36;100800.66;4959667;28;114159;-66
2021/05/13 03:26:34;;;;;;;7.03;5.25;;;;;;;12.25;56.33;100807.16;4967069;28;124299;-66
2021/05/13 03:29:02;;;;;;;6.00;4.95;;;;;;;12.20;56.57;100804.72;4985416;28;125896;-66
2021/05/13 03:31:29;;;;;;;5.70;4.88;;;;;;;12.16;56.57;100803.19;4970322;28;114321;-66
2021/05/13 03:33:56;;;;;;;139.90;8.50;;;;;;;12.14;56.90;100794.44;4972347;28;113957;-66
2021/05/13 03:36:23;;;;;;;156.45;10.48;;;;;;;12.09;57.08;100807.09;4971716;28;124117;-66
2021/05/13 03:38:50;;;;;;;151.32;9.10;;;;;;;12.04;57.30;100803.84;4971284;28;123891;-66
2021/05/13 03:41:17;;;;;;;103.53;6.07;;;;;;;11.95;57.03;100801.66;4968837;28;115417;-66
2021/05/13 03:43:44;;;;;;;76.45;5.60;;;;;;;11.87;57.36;100802.00;4970595;28;115317;-66
2021/05/13 03:46:12;;;;;;;35.15;6.28;;;;;;;11.81;57.38;100800.53;4970229;28;124100;-66
2021/05/13 03:48:39;;;;;;;91.68;6.85;;;;;;;11.78;57.52;100798.03;4967038;28;123006;-66
2021/05/13 03:51:06;;;;;;;10.40;6.28;;;;;;;11.75;57.62;100803.47;4966660;28;114584;-66
2021/05/13 03:53:33;;;;;;;59.63;7.03;;;;;;;11.73;57.63;100809.81;4970881;28;114196;-66
2021/05/13 03:56:00;;;;;;;7.47;5.65;;;;;;;11.70;57.60;100805.53;4970644;28;123924;-66
2021/05/13 03:58:32;;;;;;;8.32;5.80;;;;;;;11.70;57.87;100808.19;4971397;28;124896;-66
2021/05/13 04:03:26;;;;;;;7.75;6.60;;;;;;;11.71;57.73;100807.22;4970984;28;113978;-66
2021/05/13 04:05:54;;;;;;;9.27;6.95;;;;;;;11.72;57.78;100802.78;4970972;28;124344;-66
2021/05/13 04:08:21;;;;;;;10.35;6.88;;;;;;;11.72;57.83;100803.66;4970922;28;123879;-66
2021/05/13 04:10:48;;;;;;;9.07;5.85;;;;;;;11.73;57.46;100794.72;4971256;28;114306;-66
2021/05/13 04:13:15;;;;;;;11.38;7.15;;;;;;;11.74;57.90;100801.78;4970305;28;114112;-66
2021/05/13 04:15:59;;;;;;;32.15;6.43;;;;;;;11.74;57.55;100795.63;4967812;28;123774;-66
2021/05/13 04:18:26;;;;;;;14.57;6.40;;;;;;;11.73;57.67;100800.03;4970602;28;124725;-66
2021/05/13 04:20:53;;;;;;;23.88;6.38;;;;;;;11.71;57.55;100791.31;4971253;28;114750;-66
2021/05/13 04:23:20;;;;;;;7.25;6.03;;;;;;;11.70;57.52;100794.91;4972127;28;114949;-66
2021/05/13 04:25:49;;;;;;;8.55;6.60;;;;;;;11.71;57.39;100796.59;4971368;28;123456;-66
2021/05/13 04:28:16;;;;;;;22.45;7.93;;;;;;;11.72;58.10;100801.00;4951330;28;123030;-66
2021/05/13 04:30:43;;;;;;;18.48;8.55;;;;;;;11.72;58.08;100797.50;4970860;28;115929;-66
2021/05/13 04:33:12;;;;;;;8.52;6.07;;;;;;;11.70;57.96;100800.22;4971652;28;114709;-66
2021/05/13 04:35:40;;;;;;;6.43;5.82;;;;;;;11.69;58.09;100793.19;4970846;28;123787;-66
2021/05/13 04:38:08;;;;;;;7.30;6.43;;;;;;;11.70;58.00;100789.59;4970409;28;124509;-67
2021/05/13 04:40:35;;;;;;;8.75;7.68;;;;;;;11.72;58.18;100797.50;4969801;28;114353;-67
2021/05/13 04:43:03;;;;;;;8.80;7.18;;;;;;;11.71;58.14;100786.00;4972111;28;113752;-68
2021/05/13 04:45:30;;;;;;;8.82;7.72;;;;;;;11.74;58.15;100792.97;4968950;28;123070;-66
2021/05/13 04:50:24;;;;;;;11.43;8.48;;;;;;;11.78;57.98;100787.41;4969734;28;112990;-65
2021/05/13 04:52:51;;;;;;;9.55;8.25;;;;;;;11.81;58.67;100786.38;4975238;28;114204;-66
2021/05/13 04:55:18;;;;;;;8.88;7.13;;;;;;;11.84;58.40;100779.13;4969779;28;123238;-65
2021/05/13 04:57:45;;;;;;;8.65;6.72;;;;;;;11.84;58.28;100776.47;4969639;28;123268;-68
2021/05/13 05:00:13;;;;;;;8.70;7.72;;;;;;;11.88;58.58;100783.34;4980209;28;114498;-66
2021/05/13 05:02:40;;;;;;;11.60;8.15;;;;;;;11.93;58.45;100779.63;4980625;28;114839;-66
2021/05/13 05:05:08;;;;;;;15.18;11.68;;;;;;;11.96;58.74;100777.69;4971220;28;123323;-66
2021/05/13 05:07:44;;;;;;;22.77;14.45;;;;;;;12.02;59.17;100773.84;4974420;28;124165;-67
2021/05/13 05:10:12;;;;;;;20.70;14.63;;;;;;;12.08;59.14;100778.84;4924662;28;114902;-69
2021/05/13 05:12:40;;;;;;;20.45;14.75;;;;;;;12.13;59.61;100779.47;4928136;28;113691;-69
2021/05/13 05:15:08;;;;;;;17.88;14.00;;;;;;;12.18;59.63;100769.44;4912635;28;124009;-69
2021/05/13 05:17:35;;;;;;;20.60;15.10;;;;;;;12.23;59.86;100772.72;4926599;28;122851;-69
2021/05/13 05:20:04;;;;;;;24.60;16.63;;;;;;;12.30;60.11;100772.38;4929112;28;115157;-68
2021/05/13 05:22:32;;;;;;;24.80;18.23;;;;;;;12.35;60.26;100773.00;4918527;28;115926;-68
2021/05/13 05:25:01;;;;;;;26.05;19.17;;;;;;;12.42;60.42;100766.41;4929160;28;123613;-68
2021/05/13 05:27:29;;;;;;;25.40;18.27;;;;;;;12.47;60.22;100764.38;4926341;28;123105;-68
2021/05/13 05:29:56;;;;;;;28.25;19.60;;;;;;;12.53;60.64;100758.72;4931361;28;114036;-68
2021/05/13 05:32:23;;;;;;;24.45;18.48;;;;;;;12.60;60.80;100765.44;4933531;28;114156;-68
2021/05/13 05:34:50;;;;;;;27.17;19.65;;;;;;;12.68;60.90;100766.78;4943015;28;123540;-68
2021/05/13 05:37:17;;;;;;;29.42;20.05;;;;;;;12.75;60.91;100762.84;4929067;28;123249;-68
2021/05/13 05:39:45;;;;;;;26.35;19.60;;;;;;;12.80;61.30;100753.66;4929110;28;114261;-68
2021/05/13 05:42:12;;;;;;;30.30;19.98;;;;;;;12.87;61.28;100756.84;4928697;28;114436;-69
2021/05/13 05:44:39;;;;;;;25.90;20.30;;;;;;;12.94;61.40;100752.91;4924423;28;122800;-68
2021/05/13 05:47:06;;;;;;;26.65;20.58;;;;;;;13.03;61.36;100757.72;4931102;28;123258;-69
2021/05/13 05:49:33;;;;;;;25.92;20.80;;;;;;;13.12;61.06;100758.97;4928414;28;114604;-68
2021/05/13 05:52:00;;;;;;;29.02;20.95;;;;;;;13.22;61.57;100761.97;4926348;28;114752;-69
2021/05/13 05:54:27;;;;;;;29.70;23.42;;;;;;;13.31;61.72;100750.81;4927588;28;123513;-69
2021/05/13 05:56:54;;;;;;;27.67;22.55;;;;;;;13.41;61.58;100752.03;4928308;28;124825;-69
2021/05/13 05:59:23;;;;;;;30.80;22.45;;;;;;;13.51;61.73;100747.00;4926968;28;114392;-69
2021/05/13 06:01:50;;;;;;;33.75;24.23;;;;;;;13.61;61.64;100747.31;4930732;28;113981;-69
2021/05/13 06:04:17;;;;;;;28.23;22.38;;;;;;;13.73;61.73;100746.59;4927861;28;124757;-69
2021/05/13 06:06:44;;;;;;;28.63;22.25;;;;;;;13.83;61.64;100741.56;4928120;28;124749;-70
2021/05/13 06:09:11;;;;;;;28.17;23.08;;;;;;;13.95;61.39;100734.66;4929802;28;115369;-70
2021/05/13 06:11:39;;;;;;;27.58;23.15;;;;;;;14.05;61.48;100735.78;4931946;28;114069;-69
2021/05/13 06:14:06;;;;;;;29.17;24.25;;;;;;;14.16;61.60;100738.63;4927942;28;124142;-69
2021/05/13 06:16:33;;;;;;;30.15;23.95;;;;;;;14.28;61.52;100741.50;4929378;28;123442;-69
2021/05/13 06:19:00;;;;;;;28.10;24.48;;;;;;;14.40;61.55;100735.41;4924805;28;114657;-69
2021/05/13 06:21:27;;;;;;;31.52;25.02;;;;;;;14.53;61.44;100731.03;4922590;28;113913;-69
2021/05/13 06:23:57;;;;;;;28.70;23.95;;;;;;;14.69;61.40;100740.72;4925397;28;124380;-69
2021/05/13 06:26:26;;;;;;;31.02;25.67;;;;;;;14.82;61.18;100731.00;4928066;28;123999;-69
2021/05/13 06:29:05;;;;;;;30.75;26.33;;;;;;;14.98;61.28;100731.72;4922332;28;114366;-69
2021/05/13 06:31:36;;;;;;;32.45;27.23;;;;;;;15.16;61.33;100731.44;4928938;28;114415;-70
2021/05/13 06:34:04;;;;;;;34.15;28.70;;;;;;;15.35;61.36;100731.97;4926629;28;124863;-70
2021/05/13 06:36:33;;;;;;;32.60;28.05;;;;;;;15.54;60.65;100738.72;4922630;28;124553;-70
2021/05/13 06:39:00;;;;;;;31.95;27.48;;;;;;;15.69;60.33;100731.47;4924790;28;114567;-70
2021/05/13 06:41:27;;;;;;;33.40;26.50;;;;;;;15.87;60.30;100724.06;4931796;28;114225;-71
2021/05/13 06:43:54;;;;;;;32.85;28.35;;;;;;;16.05;60.07;100727.25;4925482;28;123904;-70
2021/05/13 06:46:24;;;;;;;33.60;28.60;;;;;;;16.25;59.74;100723.19;4924974;28;124687;-70
2021/05/13 06:48:51;;;;;;;35.22;30.15;;;;;;;16.43;59.59;100711.19;4919282;28;114618;-69
2021/05/13 06:51:20;;;;;;;35.25;29.42;;;;;;;16.63;59.34;100711.56;4926442;28;113534;-69
2021/05/13 06:53:47;;;;;;;32.92;27.50;;;;;;;16.82;58.80;100722.66;4926909;28;124774;-69
2021/05/13 06:56:15;;;;;;;35.40;28.95;;;;;;;17.01;58.88;100716.81;4925676;28;123751;-69
2021/05/13 06:58:44;;;;;;;30.40;26.60;;;;;;;17.23;58.23;100713.38;4924777;28;115618;-69
2021/05/13 07:01:11;;;;;;;31.70;26.30;;;;;;;17.45;57.97;100719.78;4921657;28;115017;-68
2021/05/13 07:03:39;;;;;;;32.25;25.77;;;;;;;17.65;57.54;100716.44;4922888;28;124856;-68
2021/05/13 07:06:07;;;;;;;29.40;24.02;;;;;;;17.85;57.00;100711.38;4918808;28;124619;-69
2021/05/13 07:08:34;;;;;;;30.13;24.40;;;;;;;18.03;56.21;100712.63;4929425;28;115620;-69
2021/05/13 07:11:02;;;;;;;33.38;24.77;;;;;;;18.19;56.26;100714.09;4947395;28;112903;-69
2021/05/13 07:13:29;;;;;;;33.25;25.25;;;;;;;18.36;55.88;100705.56;4926358;28;123899;-69
2021/05/13 07:15:56;;;;;;;32.45;24.95;;;;;;;18.55;55.30;100709.44;4929728;28;124823;-69
2021/05/13 07:18:25;;;;;;;31.02;24.48;;;;;;;18.72;55.36;100711.59;4934007;28;113761;-69
2021/05/13 07:20:53;;;;;;;30.38;24.90;;;;;;;18.91;54.92;100696.72;4927393;28;114775;-69
2021/05/13 07:23:21;;;;;;;29.67;24.80;;;;;;;19.10;54.90;100704.97;4923445;28;123857;-69
2021/05/13 07:25:48;;;;;;;31.48;25.17;;;;;;;19.26;54.21;100700.00;4924000;28;125933;-69
2021/05/13 07:28:15;;;;;;;28.38;24.48;;;;;;;19.44;54.22;100702.13;4923144;28;114656;-69
2021/05/13 07:30:43;;;;;;;26.88;22.98;;;;;;;19.61;53.07;100706.91;4920811;28;114025;-69
2021/05/13 07:33:10;;;;;;;27.67;23.50;;;;;;;19.72;52.30;100705.13;4930946;28;124390;-70
2021/05/13 07:35:38;;;;;;;27.95;23.90;;;;;;;19.82;52.03;100706.09;4929517;28;124182;-69
2021/05/13 07:38:05;;;;;;;27.98;23.48;;;;;;;19.92;51.71;100706.97;4930259;28;114587;-70
2021/05/13 07:40:33;;;;;;;28.17;24.05;;;;;;;20.01;50.96;100706.19;4920441;28;114092;-69
2021/05/13 07:43:00;;;;;;;26.63;23.77;;;;;;;20.10;51.06;100709.03;4949811;28;123443;-69
2021/05/13 07:45:28;;;;;;;27.23;22.55;;;;;;;20.16;50.94;100708.53;4922377;28;123967;-69
2021/05/13 07:47:58;;;;;;;28.45;24.40;;;;;;;20.26;50.19;100712.09;4926445;28;115106;-68
2021/05/13 07:50:25;;;;;;;27.83;23.98;;;;;;;20.34;49.33;100701.53;4929435;28;114854;-69
2021/05/13 07:52:53;;;;;;;29.30;24.60;;;;;;;20.36;49.27;100710.31;4925941;28;124111;-69
2021/05/13 07:55:20;;;;;;;26.00;23.15;;;;;;;20.37;48.99;100703.94;4931745;28;123844;-69
2021/05/13 07:57:47;;;;;;;29.10;23.58;;;;;;;20.45;49.86;100697.03;4929107;28;114525;-70
2021/05/13 08:00:15;;;;;;;28.20;22.77;;;;;;;20.59;49.93;100702.03;4934357;28;113241;-69
2021/05/13 08:02:43;;;;;;;28.17;22.98;;;;;;;20.77;50.04;100703.06;4920688;28;124090;-69
2021/05/13 08:05:11;;;;;;;23.38;20.88;;;;;;;20.96;49.21;100706.78;4927118;28;123968;-69
2021/05/13 08:07:38;;;;;;;21.85;19.33;;;;;;;21.10;48.77;100706.38;4924614;28;114278;-68
2021/05/13 08:10:07;;;;;;;24.33;21.58;;;;;;;21.23;48.68;100698.03;4924226;28;114459;-69
2021/05/13 08:12:34;;;;;;;26.77;21.00;;;;;;;21.35;47.79;100693.34;4929936;28;123174;-69
2021/05/13 08:15:08;;;;;;;27.33;20.48;;;;;;;21.44;47.30;100688.94;4925731;28;124186;-70
2021/05/13 08:17:36;;;;;;;19.20;17.00;;;;;;;21.52;46.43;100689.94;4930989;28;114229;-69
2021/05/13 08:20:06;;;;;;;23.08;18.48;;;;;;;21.57;46.03;100693.06;4919074;28;114016;-68
2021/05/13 08:22:34;;;;;;;23.20;20.15;;;;;;;21.64;46.55;100695.19;4917676;28;123543;-70
2021/05/13 08:25:04;;;;;;;24.73;19.58;;;;;;;21.72;45.71;100703.41;4921852;28;123938;-70
2021/05/13 08:27:31;;;;;;;24.00;20.52;;;;;;;21.77;46.02;100696.59;4932656;28;114152;-69
2021/05/13 08:29:59;;;;;;;22.50;18.40;;;;;;;21.85;45.84;100693.16;4928521;28;115364;-70
2021/05/13 08:32:26;;;;;;;21.85;17.17;;;;;;;21.95;45.28;100687.72;4930673;28;124077;-70
2021/05/13 08:34:54;;;;;;;24.05;18.33;;;;;;;22.07;44.76;100685.69;4927345;28;124139;-70
2021/05/13 08:37:21;;;;;;;23.55;17.85;;;;;;;22.15;44.31;100688.50;4932139;28;115558;-69
2021/05/13 08:39:49;;;;;;;21.05;18.27;;;;;;;22.17;42.77;100686.53;4926531;28;114100;-70
2021/05/13 08:42:16;;;;;;;23.73;18.45;;;;;;;22.12;42.68;100683.41;4927516;28;124308;-70
2021/05/13 08:44:45;;;;;;;24.48;18.52;;;;;;;22.09;42.23;100689.09;4930915;28;124305;-70
2021/05/13 08:47:12;;;;;;;21.80;17.73;;;;;;;22.06;42.30;100684.00;4929049;28;114095;-70
2021/05/13 08:49:40;;;;;;;22.85;17.92;;;;;;;22.07;42.56;100683.00;4929369;28;113810;-70
2021/05/13 08:52:12;;;;;;;22.35;16.58;;;;;;;22.13;42.52;100679.69;4929858;28;123573;-70
2021/05/13 08:55:01;;;;;;;21.80;16.45;;;;;;;22.21;42.42;100677.13;4934267;28;123928;-70
2021/05/13 08:57:28;;;;;;;19.77;15.00;;;;;;;22.27;42.22;100686.50;4926531;28;114638;-70
2021/05/13 08:59:57;;;;;;;19.05;14.88;;;;;;;22.33;42.19;100675.94;4923319;28;114209;-70
2021/05/13 09:02:29;;;;;;;19.27;15.43;;;;;;;22.41;41.71;100677.88;4928612;28;124070;-70
2021/05/13 09:04:59;;;;;;;19.42;16.00;;;;;;;22.45;41.53;100673.03;4929876;28;124140;-70
2021/05/13 09:07:29;;;;;;;28.33;15.32;;;;;;;22.51;41.71;100672.47;4933421;28;113860;-70
2021/05/13 09:10:06;;;;;;;15.73;13.20;;;;;;;22.59;40.48;100671.72;4932037;28;113524;-70
2021/05/13 09:12:42;;;;;;;15.43;12.60;;;;;;;22.62;40.34;100669.56;4922654;28;123328;-70
2021/05/13 09:15:11;;;;;;;16.17;12.05;;;;;;;22.62;39.29;100669.56;4928821;28;123943;-70
2021/05/13 09:17:41;;;;;;;16.20;12.38;;;;;;;22.61;39.21;100667.00;4918262;28;114462;-70
2021/05/13 09:20:31;;;;;;;18.05;11.15;;;;;;;22.58;39.16;100661.91;4927979;28;114139;-70
2021/05/13 09:23:28;;;;;;;16.55;10.63;;;;;;;22.55;38.83;100668.47;4921865;28;124257;-70
2021/05/13 09:26:12;;;;;;;13.45;10.40;;;;;;;22.56;38.17;100653.94;4927434;28;124813;-70
2021/05/13 09:28:46;;;;;;;17.38;12.95;;;;;;;22.55;38.52;100657.66;4930320;28;115079;-70
2021/05/13 09:31:36;;;;;;;18.60;12.50;;;;;;;22.50;38.78;100654.56;4928717;28;114996;-70
2021/05/13 09:34:08;;;;;;;17.60;14.15;;;;;;;22.50;39.29;100657.25;4933275;28;124891;-70
2021/05/13 09:36:36;;;;;;;19.88;15.15;;;;;;;22.52;39.81;100655.25;4931527;28;124028;-70
2021/05/13 09:39:25;;;;;;;16.00;12.60;;;;;;;22.55;38.99;100645.00;4930840;28;114525;-70
2021/05/13 09:42:01;;;;;;;16.77;12.35;;;;;;;22.62;38.96;100647.09;4933128;28;115401;-70
2021/05/13 09:44:34;;;;;;;14.43;11.00;;;;;;;22.73;38.35;100639.63;4927055;28;123923;-70
2021/05/13 09:47:16;;;;;;;16.48;11.45;;;;;;;22.81;38.00;100638.00;4929148;28;123538;-70
2021/05/13 09:50:04;;;;;;;14.98;11.88;;;;;;;22.85;36.99;100636.69;4926559;28;114458;-70
2021/05/13 09:53:00;;;;;;;19.60;12.35;;;;;;;22.89;37.37;100632.69;4925779;28;113892;-70
2021/05/13 09:55:33;;;;;;;13.45;9.73;;;;;;;22.94;37.01;100636.63;4932401;28;98790;-70
2021/05/13 09:58:09;;;;;;;12.82;9.65;;;;;;;22.99;36.92;100638.84;4928627;28;124505;-71
2021/05/13 10:00:47;;;;;;;13.93;10.27;;;;;;;22.98;36.63;100637.16;4931161;28;114328;-70
2021/05/13 10:03:18;;;;;;;15.27;9.65;;;;;;;22.98;36.88;100637.16;4930783;28;113878;-70
2021/05/13 10:05:52;;;;;;;12.70;9.15;;;;;;;23.01;37.56;100636.84;4921605;28;124350;-70
2021/05/13 10:08:20;;;;;;;12.77;9.63;;;;;;;23.05;37.75;100632.84;4947305;28;123032;-70
2021/05/13 10:10:48;;;;;;;13.73;8.60;;;;;;;23.08;36.40;100632.56;4930838;28;114635;-70
2021/05/13 10:13:18;;;;;;;15.18;10.65;;;;;;;23.12;36.21;100633.94;4928654;28;114250;-70
2021/05/13 10:15:47;;;;;;;15.30;10.30;;;;;;;23.16;35.97;100628.22;4929905;28;124069;-70
2021/05/13 10:18:22;;;;;;;10.90;8.98;;;;;;;23.11;35.25;100621.44;4918737;28;123834;-70
2021/05/13 10:20:55;;;;;;;12.95;9.07;;;;;;;23.04;35.77;100625.78;4931674;28;114367;-70
2021/05/13 10:23:22;;;;;;;13.20;8.10;;;;;;;23.01;35.54;100619.78;4930976;28;114951;-70
2021/05/13 10:25:50;;;;;;;11.73;7.22;;;;;;;22.92;34.57;100622.44;4930386;28;124463;-70
2021/05/13 10:28:25;;;;;;;11.70;6.90;;;;;;;22.90;35.38;100623.56;4925269;28;123950;-70
2021/05/13 10:31:06;;;;;;;13.50;7.43;;;;;;;22.90;35.27;100618.16;4927494;28;114666;-70
2021/05/13 10:33:48;;;;;;;9.52;6.68;;;;;;;22.93;35.71;100615.16;4923815;28;114056;-70
2021/05/13 10:36:22;;;;;;;11.52;7.35;;;;;;;22.96;35.43;100614.84;4926235;28;123973;-70
2021/05/13 10:39:06;;;;;;;11.82;7.32;;;;;;;22.94;35.59;100614.16;4931544;28;124268;-70
2021/05/13 10:41:35;;;;;;;11.80;7.28;;;;;;;22.98;36.27;100604.75;4931052;28;114974;-70
2021/05/13 10:44:08;;;;;;;11.10;8.18;;;;;;;22.98;35.14;100610.16;4935527;28;114217;-70
2021/05/13 10:46:51;;;;;;;12.93;8.35;;;;;;;22.96;35.47;100606.75;4931176;28;124288;-70
2021/05/13 10:49:20;;;;;;;11.75;8.25;;;;;;;22.89;35.59;100611.09;4935800;28;125168;-70
2021/05/13 10:51:50;;;;;;;10.70;7.40;;;;;;;22.85;35.26;100610.53;4934804;28;113543;-70
2021/05/13 10:54:29;;;;;;;9.25;6.88;;;;;;;22.78;34.75;100605.94;4933692;28;114442;-70
2021/05/13 10:57:20;;;;;;;11.07;7.43;;;;;;;22.72;35.34;100605.53;4934934;28;124515;-70
2021/05/13 11:02:40;;;;;;;9.88;6.88;;;;;;;22.63;35.62;100595.66;4929420;28;115069;-70
2021/05/13 11:05:26;;;;;;;;;;;;;;;22.60;36.68;100595.09;4930119;28;114741;-70
2021/05/13 11:08:03;;;;;;;9.40;6.65;;;;;;;22.60;35.44;100595.94;4959362;22;124437;-69
2021/05/13 11:11:06;;;;;;;10.65;6.65;;;;;;;22.54;36.01;100585.78;4943400;28;122562;-66
2021/05/13 11:13:44;;;;;;;9.77;6.40;;;;;;;22.53;35.45;100589.50;4913760;28;114590;-65
2021/05/13 11:16:53;;;;;;;10.10;5.78;;;;;;;22.51;35.42;100580.69;4936369;28;114389;-66
2021/05/13 11:19:23;;;;;;;9.63;5.90;;;;;;;22.51;35.77;100578.00;4975686;28;124775;-66
2021/05/13 11:21:54;;;;;;;9.88;5.60;;;;;;;22.52;35.75;100587.78;4972924;28;124164;-66
2021/05/13 11:24:21;;;;;;;9.77;5.60;;;;;;;22.51;35.74;100575.31;4972797;28;114556;-66
2021/05/13 11:26:55;;;;;;;8.00;5.30;;;;;;;22.52;35.03;100582.38;4968734;28;112900;-66
2021/05/13 11:29:23;;;;;;;7.13;4.78;;;;;;;22.60;34.93;100582.44;4971999;28;125358;-68
2021/05/13 11:31:51;;;;;;;10.23;5.38;;;;;;;22.67;35.52;100574.59;4973391;28;124624;-66
2021/05/13 11:34:18;;;;;;;9.98;5.30;;;;;;;22.78;35.32;100565.41;4976065;28;114418;-66